Data for 03/10/2018

Time Sea-Level Adjusted Pressure Absolute Pressure Temperature Relative Humidity Dew Point   
(mb) (inHg) (mb) (inHg) (C) (F) (%) (C) (F)
00:05 1017 30.03 846 24.98 -2 28.5 52 -10.6 12.8
00:10 1017 30.03 846 24.98 -2 28.4 51 -10.8 12.6
00:15 1017 30.03 846 24.98 -2.1 28.3 52 -10.7 12.8
00:20 1017 30.03 846 24.98 -2.1 28.1 53 -10.6 13
00:25 1017 30.03 846 24.98 -2.4 27.7 53 -10.8 12.6
00:30 1017 30.03 846 24.98 -2.4 27.7 52 -10.8 12.5
00:35 1017 30.03 846 24.98 -2.3 27.9 53 -10.7 12.7
00:40 1017 30.03 846 24.98 -2.5 27.4 54 -10.6 13
00:45 1017 30.03 847 25.01 -2.8 27 54 -10.9 12.4
00:50 1017 30.03 847 25.01 -2.5 27.6 52 -11 12.2
00:55 1018 30.06 847 25.01 -2.3 28 52 -10.8 12.6
01:00 1018 30.06 847 25.01 -2.3 27.9 53 -10.7 12.7
01:05 1018 30.06 847 25.01 -2.3 27.9 52 -10.8 12.6
01:10 1018 30.06 847 25.01 -2.3 27.9 51 -11 12.1
01:15 1018 30.06 847 25.01 -2.2 28.1 51 -11 12.1
01:20 1018 30.06 847 25.01 -2 28.4 50 -11 12.2
01:25 1018 30.06 847 25.01 -1.9 28.6 50 -10.9 12.3
01:30 1018 30.06 847 25.01 -1.9 28.5 51 -10.8 12.5
01:35 1018 30.06 847 25.01 -2 28.5 52 -10.5 13
01:40 1018 30.06 847 25.01 -2.4 27.8 55 -10.3 13.4
01:45 1018 30.06 847 25.01 -2.7 27.1 55 -10.5 13
01:50 1018 30.06 847 25.01 -2.7 27.1 54 -10.7 12.8
01:55 1018 30.06 847 25.01 -2.7 27.1 54 -10.9 12.4
02:00 1018 30.06 847 25.01 -2.8 27 56 -10.4 13.3
02:05 1018 30.06 847 25.01 -3.2 26.3 58 -10.3 13.5
02:10 1018 30.06 847 25.01 -3.7 25.3 59 -10.5 13.1
02:15 1018 30.06 847 25.01 -3.9 24.9 61 -10.3 13.4
02:20 1018 30.06 847 25.01 -4.2 24.5 63 -10.3 13.5
02:25 1018 30.06 847 25.01 -4.3 24.3 65 -9.9 14.2
02:30 1018 30.06 847 25.01 -4.3 24.2 65 -10 14
02:35 1018 30.06 847 25.01 -4.3 24.3 64 -10.2 13.7
02:40 1018 30.06 848 25.04 -4 24.8 62 -10.3 13.5
02:45 1018 30.06 848 25.04 -4 24.9 62 -10.3 13.5
02:50 1019 30.09 848 25.04 -3.9 24.9 63 -9.9 14.2
02:55 1019 30.09 848 25.04 -4.1 24.6 65 -9.8 14.4
03:00 1019 30.09 848 25.04 -4.1 24.6 64 -9.9 14.1
03:05 1019 30.09 848 25.04 -4.2 24.4 66 -9.6 14.7
03:10 1019 30.09 848 25.04 -4.5 23.9 66 -9.8 14.3
03:15 1019 30.09 848 25.04 -4.6 23.7 66 -10 14.1
03:20 1019 30.09 848 25.04 -4.6 23.7 68 -9.7 14.6
03:25 1019 30.09 848 25.04 -4.6 23.7 67 -9.8 14.3
03:30 1019 30.09 848 25.04 -4.4 24 65 -10 14
03:35 1019 30.09 848 25.04 -4.2 24.5 64 -10 14.1
03:40 1019 30.09 848 25.04 -4.2 24.4 64 -10 14
03:45 1019 30.09 848 25.04 -4.5 23.8 67 -9.8 14.3
03:50 1019 30.09 848 25.04 -4.7 23.5 67 -9.9 14.1
03:55 1019 30.09 848 25.04 -4.7 23.5 67 -10 13.9
04:00 1019 30.09 848 25.04 -4.7 23.6 66 -10 13.9
04:05 1019 30.09 849 25.07 -4.6 23.8 66 -9.9 14.2
04:10 1020 30.12 849 25.07 -4.4 24.1 64 -10.3 13.5
04:15 1020 30.12 849 25.07 -4.5 24 64 -10.2 13.6
04:20 1020 30.12 849 25.07 -4.6 23.6 65 -10.2 13.7
04:25 1020 30.12 849 25.07 -4.6 23.7 66 -10.1 13.9
04:30 1020 30.12 849 25.07 -4.4 24.1 65 -10 14
04:35 1020 30.12 849 25.07 -4.2 24.4 65 -9.9 14.2
04:40 1020 30.12 849 25.07 -4.4 24 64 -10.2 13.6
04:45 1020 30.12 849 25.07 -4.5 23.8 64 -10.3 13.4
04:50 1020 30.12 849 25.07 -4.6 23.6 66 -10.1 13.8
04:55 1020 30.12 849 25.07 -4.7 23.6 66 -10.1 13.9
05:00 1020 30.12 849 25.07 -4.7 23.6 66 -10.1 13.9
05:05 1020 30.12 849 25.07 -4.6 23.6 65 -10.2 13.7
05:10 1020 30.12 849 25.07 -4.6 23.8 65 -10.3 13.5
05:15 1020 30.12 849 25.07 -4.6 23.7 65 -10.2 13.7
05:20 1020 30.12 849 25.07 -4.6 23.7 64 -10.5 13.1
05:25 1020 30.12 849 25.07 -4.6 23.8 63 -10.6 12.9
05:30 1020 30.12 849 25.07 -4.6 23.8 63 -10.5 13.1
05:35 1020 30.12 849 25.07 -4.6 23.7 63 -10.6 12.9
05:40 1020 30.12 849 25.07 -4.8 23.3 65 -10.4 13.3
05:45 1020 30.12 849 25.07 -4.9 23.1 65 -10.5 13.2
05:50 1020 30.12 849 25.07 -5 23 65 -10.6 12.9
05:55 1020 30.12 849 25.07 -4.8 23.3 64 -10.6 12.9
06:00 1020 30.12 850 25.1 -4.6 23.7 63 -10.6 12.9
06:05 1020 30.12 850 25.1 -4.6 23.8 63 -10.6 13
06:10 1020 30.12 850 25.1 -4.5 23.9 62 -10.7 12.8
06:15 1020 30.12 850 25.1 -4.5 23.9 63 -10.5 13.1
06:20 1020 30.12 850 25.1 -4.5 24 61 -10.8 12.6
06:25 1020 30.12 850 25.1 -4.3 24.3 60 -10.9 12.3
06:30 1021 30.15 850 25.1 -4.1 24.6 60 -10.8 12.6
06:35 1021 30.15 850 25.1 -4 24.8 58 -11 12.2
06:40 1020 30.12 850 25.1 -4 24.9 58 -11.1 12
06:45 1020 30.12 850 25.1 -3.9 25 57 -11.2 11.8
06:50 1021 30.15 850 25.1 -3.8 25.1 58 -11 12.1
06:55 1021 30.15 850 25.1 -3.7 25.4 57 -11 12.1
07:00 1021 30.15 850 25.1 -3.4 25.8 55 -11.2 11.9
07:05 1021 30.15 850 25.1 -3.3 26 55 -11.2 11.8
07:10 1021 30.15 850 25.1 -3 26.5 53 -11.3 11.6
07:15 1021 30.15 850 25.1 -2.9 26.7 54 -11 12.1
07:20 1021 30.15 850 25.1 -2.6 27.3 52 -11.1 12
07:25 1021 30.15 850 25.1 -2.7 27.2 52 -11.3 11.6
07:30 1021 30.15 850 25.1 -2.4 27.6 51 -11.2 11.9
07:35 1021 30.15 850 25.1 -2.1 28.2 50 -11.3 11.7
07:40 1021 30.15 850 25.1 -1.7 29 49 -11.1 11.9
07:45 1021 30.15 850 25.1 -1.7 28.9 49 -11.2 11.9
07:50 1021 30.15 850 25.1 -1.5 29.2 49 -10.8 12.5
07:55 1021 30.15 850 25.1 -1.4 29.6 49 -10.8 12.6
08:00 1021 30.15 850 25.1 -1.3 29.7 48 -11 12.2
08:05 1021 30.15 850 25.1 -0.6 31 43 -11.7 11
08:10 1021 30.15 850 25.1 -0.4 31.3 41 -12 10.5
08:15 1021 30.15 850 25.1 0.3 32.6 41 -11.4 11.5
08:20 1021 30.15 850 25.1 1 33.8 39 -11.6 11.1
08:25 1021 30.15 850 25.1 1.1 34 41 -10.6 12.9
08:30 1021 30.15 850 25.1 0.1 32.1 46 -10.3 13.5
08:35 1021 30.15 850 25.1 -0.3 31.5 47 -10.3 13.5
08:40 1021 30.15 850 25.1 -0.7 30.7 50 -9.8 14.3
08:45 1021 30.15 850 25.1 -0.4 31.3 51 -9.3 15.2
08:50 1021 30.15 850 25.1 -0.6 30.9 48 -10.2 13.6
08:55 1021 30.15 850 25.1 -0.6 31 48 -10.2 13.6
09:00 1021 30.15 850 25.1 -0.4 31.2 46 -10.7 12.7
09:05 1021 30.15 850 25.1 -0.5 31 47 -10.6 12.9
09:10 1021 30.15 850 25.1 -0.2 31.6 45 -10.8 12.6
09:15 1021 30.15 851 25.13 0.4 32.6 45 -10.4 13.3
09:20 1021 30.15 851 25.13 1.1 34 41 -10.6 12.9
09:25 1021 30.15 851 25.13 1.6 35 41 -10.4 13.3
09:30 1021 30.15 851 25.13 1.8 35.2 41 -10 14
09:35 1021 30.15 851 25.13 1.5 34.7 41 -10.3 13.5
09:40 1021 30.15 851 25.13 1.1 33.9 41 -10.6 12.9
09:45 1022 30.18 851 25.13 0.7 33.3 40 -11.3 11.7
09:50 1021 30.15 851 25.13 0.7 33.2 39 -11.8 10.8
09:55 1021 30.15 851 25.13 0.4 32.7 41 -11.6 11.2
10:00 1021 30.15 851 25.13 1 33.7 38 -11.8 10.8
10:05 1021 30.15 850 25.1 1.4 34.5 38 -11.3 11.6
10:10 1021 30.15 850 25.1 2.2 35.9 38 -10.8 12.5
10:15 1021 30.15 850 25.1 2.6 36.8 37 -10.7 12.8
10:20 1021 30.15 850 25.1 2.2 35.9 38 -10.6 12.9
10:25 1021 30.15 851 25.13 1.5 34.7 37 -11.7 10.9
10:30 1021 30.15 851 25.13 1.4 34.6 36 -11.9 10.5
10:35 1021 30.15 851 25.13 1.8 35.3 36 -11.9 10.6
10:40 1021 30.15 850 25.1 2.3 36.1 35 -11.5 11.3
10:45 1021 30.15 850 25.1 2.6 36.7 35 -11.5 11.4
10:50 1021 30.15 851 25.13 2.7 36.9 33 -12 10.4
10:55 1021 30.15 851 25.13 2.4 36.4 35 -11.7 11
11:00 1021 30.15 850 25.1 3.8 38.8 30 -12.2 10.1
11:05 1021 30.15 851 25.13 4.2 39.6 32 -11.1 12
11:10 1021 30.15 851 25.13 3.7 38.7 31 -11.8 10.8
11:15 1021 30.15 851 25.13 3.3 38 31 -12.5 9.6
11:20 1021 30.15 851 25.13 3.1 37.6 30 -12.8 8.9
11:25 1021 30.15 851 25.13 4.2 39.6 29 -12.2 10
11:30 1021 30.15 851 25.13 4.8 40.6 27 -12.6 9.3
11:35 1021 30.15 851 25.13 4.1 39.4 30 -11.8 10.7
11:40 1021 30.15 851 25.13 4.9 40.7 28 -12.1 10.2
11:45 1021 30.15 851 25.13 4.8 40.6 28 -12.5 9.5
11:50 1021 30.15 850 25.1 4.5 40.2 28 -12.3 9.9
11:55 1021 30.15 850 25.1 3.9 39 33 -11.1 12
12:00 1021 30.15 850 25.1 4.3 39.8 27 -13 8.6
12:05 1021 30.15 850 25.1 3.5 38.4 30 -12.4 9.7
12:10 1021 30.15 850 25.1 4.7 40.5 28 -12.1 10.2
12:15 1021 30.15 850 25.1 4.7 40.5 28 -12.2 10
12:20 1021 30.15 850 25.1 4.3 39.7 30 -11.9 10.5
12:25 1021 30.15 850 25.1 4.3 39.7 29 -12.2 10
12:30 1021 30.15 850 25.1 4.5 40.1 30 -11.4 11.4
12:35 1021 30.15 850 25.1 5.2 41.3 29 -11.5 11.2
12:40 1021 30.15 850 25.1 5.7 42.2 27 -11.9 10.7
12:45 1021 30.15 850 25.1 5.7 42.3 27 -11.8 10.7
12:50 1021 30.15 850 25.1 4.2 39.6 28 -12.6 9.3
12:55 1021 30.15 850 25.1 3.9 39 31 -11.7 10.9
13:00 1021 30.15 850 25.1 4.6 40.4 30 -11.3 11.6
13:05 1021 30.15 850 25.1 5.3 41.6 30 -11.1 12
13:10 1021 30.15 850 25.1 4.5 40.1 31 -11.1 11.9
13:15 1021 30.15 850 25.1 4.9 40.8 31 -11 12.2
13:20 1021 30.15 850 25.1 5.4 41.7 29 -11.4 11.5
13:25 1021 30.15 851 25.13 4.8 40.7 30 -11.4 11.6
13:30 1021 30.15 851 25.13 5.3 41.6 30 -11 12.2
13:35 1021 30.15 851 25.13 5 41.1 29 -11.6 11.1
13:40 1021 30.15 851 25.13 5.1 41.2 28 -11.9 10.5
13:45 1022 30.18 851 25.13 5.5 41.8 26 -12.6 9.2
13:50 1022 30.18 851 25.13 5.6 42.1 28 -11.7 11
13:55 1022 30.18 851 25.13 5.3 41.5 28 -11.7 11
14:00 1022 30.18 851 25.13 5.1 41.1 27 -12.4 9.8
14:05 1022 30.18 851 25.13 5.2 41.4 28 -11.9 10.6
14:10 1022 30.18 851 25.13 4.5 40.1 28 -12.3 9.8
14:15 1021 30.15 851 25.13 5 40.9 27 -12.8 9
14:20 1022 30.18 851 25.13 6 42.8 25 -12.7 9.2
14:25 1022 30.18 851 25.13 5.8 42.5 25 -12.7 9.1
14:30 1022 30.18 851 25.13 5.5 42 26 -12.7 9.1
14:35 1022 30.18 851 25.13 6.1 43 23 -13.5 7.7
14:40 1022 30.18 851 25.13 5 41.1 25 -13.2 8.2
14:45 1021 30.15 851 25.13 5.4 41.6 24 -13.6 7.5
14:50 1021 30.15 851 25.13 6 42.7 22 -14 6.8
14:55 1021 30.15 851 25.13 6.3 43.4 24 -12.8 8.9
15:00 1021 30.15 851 25.13 6.4 43.5 26 -11.7 11
15:05 1021 30.15 851 25.13 6.2 43.2 26 -12.1 10.2
15:10 1021 30.15 851 25.13 6.1 43 24 -13 8.7
15:15 1021 30.15 851 25.13 5.7 42.2 27 -12.1 10.2
15:20 1021 30.15 851 25.13 5.4 41.8 27 -12.2 10
15:25 1021 30.15 851 25.13 5.1 41.1 30 -11.2 11.8
15:30 1021 30.15 850 25.1 5.5 41.9 29 -11.2 11.9
15:35 1021 30.15 850 25.1 5.8 42.4 29 -10.8 12.5
15:40 1021 30.15 850 25.1 5.8 42.4 30 -10.7 12.7
15:45 1021 30.15 850 25.1 5.8 42.5 29 -10.9 12.3
15:50 1021 30.15 850 25.1 5.8 42.4 29 -11 12.2
15:55 1021 30.15 850 25.1 5.7 42.2 29 -11 12.3
16:00 1021 30.15 850 25.1 5.1 41.2 30 -11.3 11.7
16:05 1021 30.15 850 25.1 5.1 41.2 30 -11 12.3
16:10 1021 30.15 850 25.1 5.5 41.9 29 -11.3 11.6
16:15 1021 30.15 850 25.1 5.4 41.7 29 -11.2 11.8
16:20 1021 30.15 850 25.1 5.5 41.8 29 -11.1 12
16:25 1021 30.15 850 25.1 5.3 41.5 29 -11.3 11.7
16:30 1021 30.15 850 25.1 5 40.9 30 -11.2 11.8
16:35 1021 30.15 850 25.1 4.2 39.5 29 -12.3 9.8
16:40 1021 30.15 850 25.1 4 39.2 33 -11 12.2
16:45 1021 30.15 850 25.1 3.6 38.4 32 -11.7 11
16:50 1021 30.15 850 25.1 3.9 39 33 -11.1 12
16:55 1021 30.15 850 25.1 4 39.1 31 -11.5 11.3
17:00 1021 30.15 850 25.1 3.4 38.2 33 -11.5 11.3
17:05 1021 30.15 850 25.1 2.9 37.1 34 -11.6 11
17:10 1021 30.15 850 25.1 2.6 36.7 35 -11.3 11.6
17:15 1021 30.15 850 25.1 2.5 36.5 35 -11.4 11.5
17:20 1021 30.15 851 25.13 2.4 36.3 36 -11.2 11.8
17:25 1021 30.15 851 25.13 2.3 36.2 35 -11.6 11.1
17:30 1021 30.15 851 25.13 2.2 36 36 -11.4 11.5
17:35 1021 30.15 851 25.13 1.8 35.3 38 -11 12.2
17:40 1021 30.15 851 25.13 1.7 35 38 -11.1 12.1
17:45 1021 30.15 851 25.13 1.4 34.6 38 -11.4 11.5
17:50 1021 30.15 851 25.13 1.1 34 44 -9.9 14.1
17:55 1022 30.18 851 25.13 0.1 32.2 45 -10.4 13.3
18:00 1022 30.18 851 25.13 0 32.1 45 -10.6 13
18:05 1022 30.18 851 25.13 -0 32 46 -10.2 13.6
18:10 1022 30.18 851 25.13 -0 32 45 -10.7 12.7
18:15 1022 30.18 851 25.13 0.1 32.3 41 -11.7 10.9
18:20 1022 30.18 851 25.13 0 32 41 -11.7 10.9
18:25 1022 30.18 851 25.13 0.1 32.2 41 -11.7 10.9
18:30 1022 30.18 851 25.13 0.3 32.5 40 -11.9 10.6
18:35 1022 30.18 851 25.13 -0 32 42 -11.6 11.2
18:40 1022 30.18 851 25.13 -0.2 31.6 43 -11.3 11.7
18:45 1022 30.18 851 25.13 -0.7 30.7 43 -11.8 10.8
18:50 1022 30.18 851 25.13 -0.9 30.3 44 -11.8 10.7
18:55 1022 30.18 851 25.13 -1.2 29.9 46 -11.3 11.7
19:00 1022 30.18 851 25.13 -1.3 29.6 46 -11.5 11.3
19:05 1022 30.18 851 25.13 -1.5 29.2 48 -11.3 11.6
19:10 1022 30.18 851 25.13 -1.7 29 48 -11.2 11.9
19:15 1022 30.18 851 25.13 -1.4 29.5 48 -10.9 12.3
19:20 1022 30.18 851 25.13 -1.1 30 48 -10.9 12.5
19:25 1022 30.18 852 25.16 -0.9 30.5 47 -10.7 12.7
19:30 1022 30.18 852 25.16 -0.7 30.7 48 -10.5 13.1
19:35 1022 30.18 852 25.16 -0.7 30.8 47 -10.7 12.8
19:40 1023 30.21 852 25.16 -0.6 30.9 46 -10.9 12.4
19:45 1023 30.21 852 25.16 -0.5 31 45 -11.1 12.1
19:50 1023 30.21 852 25.16 -0.6 30.9 45 -11 12.2
19:55 1023 30.21 852 25.16 -0.6 30.8 45 -11.1 12.1
20:00 1023 30.21 852 25.16 -0.6 30.9 46 -10.9 12.5
20:05 1023 30.21 852 25.16 -0.6 30.9 48 -10.4 13.2
20:10 1023 30.21 852 25.16 -0.7 30.7 51 -9.7 14.6
20:15 1023 30.21 852 25.16 -0.8 30.6 49 -10.2 13.6
20:20 1023 30.21 852 25.16 -1.3 29.7 51 -10.2 13.6
20:25 1022 30.18 852 25.16 -1.6 29.1 53 -10 14
20:30 1022 30.18 852 25.16 -1.6 29 58 -8.8 16.1
20:35 1022 30.18 852 25.16 -1.4 29.4 59 -8.4 16.8
20:40 1023 30.21 852 25.16 -1.6 29.2 60 -8.4 16.9
20:45 1023 30.21 852 25.16 -1.8 28.7 59 -8.8 16.1
20:50 1023 30.21 852 25.16 -2.2 28 57 -9.6 14.6
20:55 1023 30.21 852 25.16 -2.4 27.6 58 -9.7 14.6
21:00 1023 30.21 852 25.16 -2.2 28 56 -9.9 14.2
21:05 1023 30.21 852 25.16 -2 28.4 55 -9.8 14.3
21:10 1023 30.21 852 25.16 -2 28.4 57 -9.5 14.9
21:15 1022 30.18 852 25.16 -2 28.3 58 -9.2 15.4
21:20 1022 30.18 852 25.16 -2 28.4 56 -9.5 14.9
21:25 1022 30.18 852 25.16 -2 28.4 56 -9.8 14.4
21:30 1022 30.18 852 25.16 -2.1 28.3 56 -9.7 14.6
21:35 1022 30.18 852 25.16 -2.1 28.2 55 -10 14.1
21:40 1022 30.18 852 25.16 -2.2 28 55 -10 14
21:45 1022 30.18 852 25.16 -2.4 27.7 58 -9.5 14.8
21:50 1022 30.18 851 25.13 -2.5 27.6 54 -10.5 13.1
21:55 1022 30.18 851 25.13 -2.4 27.6 53 -10.8 12.5
22:00 1022 30.18 851 25.13 -2.2 28 52 -10.9 12.5
22:05 1022 30.18 851 25.13 -2.1 28.2 52 -10.6 12.9
22:10 1022 30.18 852 25.16 -2.3 27.8 53 -10.7 12.7
22:15 1022 30.18 852 25.16 -2.5 27.5 52 -11 12.1
22:20 1022 30.18 852 25.16 -2.4 27.6 52 -11.1 12
22:25 1022 30.18 852 25.16 -2.5 27.4 51 -11.3 11.7
22:30 1022 30.18 852 25.16 -2.6 27.2 50 -11.8 10.8
22:35 1022 30.18 852 25.16 -2.9 26.8 50 -11.8 10.7
22:40 1023 30.21 852 25.16 -2.8 27 49 -12.1 10.1
22:45 1023 30.21 852 25.16 -2.8 27 49 -12 10.5
22:50 1023 30.21 852 25.16 -2.8 26.9 48 -12.3 9.9
22:55 1023 30.21 852 25.16 -2.7 27.2 51 -11.4 11.5
23:00 1023 30.21 852 25.16 -2.2 28.1 50 -11.3 11.7
23:05 1023 30.21 852 25.16 -2.2 28.1 49 -11.4 11.4
23:10 1023 30.21 852 25.16 -2.4 27.7 49 -11.6 11.1
23:15 1023 30.21 852 25.16 -2.8 27 50 -11.8 10.8
23:20 1023 30.21 852 25.16 -2.7 27.2 48 -12.1 10.2
23:25 1023 30.21 852 25.16 -2.5 27.5 47 -12.2 10
23:30 1023 30.21 852 25.16 -2.8 27 51 -11.6 11.1
23:35 1023 30.21 852 25.16 -3.7 25.3 53 -11.9 10.6
23:40 1023 30.21 852 25.16 -4.2 24.4 52 -12.8 9
23:45 1023 30.21 852 25.16 -3.2 26.3 47 -13 8.6
23:50 1023 30.21 852 25.16 -3.5 25.7 50 -12.5 9.6
23:55 1023 30.21 853 25.19 -3.9 24.9 51 -12.7 9.1
24:00 1023 30.21 853 25.19 -3.8 25.1 51 -12.6 9.3